sensor_id;sensor_type;location;lat;lon;timestamp;temperature;humidity
40756;DHT22;26461;45.630;9.418;2022-11-20T00:00:45;8.00;99.90
40756;DHT22;26461;45.630;9.418;2022-11-20T00:03:58;8.00;99.90
40756;DHT22;26461;45.630;9.418;2022-11-20T00:07:10;7.90;99.90
40756;DHT22;26461;45.630;9.418;2022-11-20T00:10:20;7.90;99.90
40756;DHT22;26461;45.630;9.418;2022-11-20T00:13:32;7.90;99.90
40756;DHT22;26461;45.630;9.418;2022-11-20T00:16:43;7.80;99.90
40756;DHT22;26461;45.630;9.418;2022-11-20T00:19:59;7.80;99.90
40756;DHT22;26461;45.630;9.418;2022-11-20T00:23:17;7.80;99.90
40756;DHT22;26461;45.630;9.418;2022-11-20T00:26:29;7.70;99.90
40756;DHT22;26461;45.630;9.418;2022-11-20T00:29:40;7.70;99.90
40756;DHT22;26461;45.630;9.418;2022-11-20T00:32:46;7.70;99.90
40756;DHT22;26461;45.630;9.418;2022-11-20T00:36:06;7.80;99.90
40756;DHT22;26461;45.630;9.418;2022-11-20T00:39:18;7.70;99.90
40756;DHT22;26461;45.630;9.418;2022-11-20T00:42:27;7.70;99.90
40756;DHT22;26461;45.630;9.418;2022-11-20T00:45:34;7.70;99.90
40756;DHT22;26461;45.630;9.418;2022-11-20T00:48:47;7.70;99.90
40756;DHT22;26461;45.630;9.418;2022-11-20T00:52:02;7.70;99.90
40756;DHT22;26461;45.630;9.418;2022-11-20T00:55:13;7.70;99.90
40756;DHT22;26461;45.630;9.418;2022-11-20T00:58:32;7.70;99.90
40756;DHT22;26461;45.630;9.418;2022-11-20T01:01:39;7.70;99.90
40756;DHT22;26461;45.630;9.418;2022-11-20T01:04:50;7.80;99.90
40756;DHT22;26461;45.630;9.418;2022-11-20T01:08:01;7.80;99.90
40756;DHT22;26461;45.630;9.418;2022-11-20T01:11:33;7.80;99.90
40756;DHT22;26461;45.630;9.418;2022-11-20T01:14:50;7.80;99.90
40756;DHT22;26461;45.630;9.418;2022-11-20T01:18:01;7.90;99.90
40756;DHT22;26461;45.630;9.418;2022-11-20T01:21:20;7.90;99.90
40756;DHT22;26461;45.630;9.418;2022-11-20T01:24:38;7.90;99.90
40756;DHT22;26461;45.630;9.418;2022-11-20T01:27:59;8.00;99.90
40756;DHT22;26461;45.630;9.418;2022-11-20T01:31:25;8.00;99.90
40756;DHT22;26461;45.630;9.418;2022-11-20T01:34:35;8.00;99.90
40756;DHT22;26461;45.630;9.418;2022-11-20T01:37:49;8.00;99.90
40756;DHT22;26461;45.630;9.418;2022-11-20T01:41:00;8.00;99.90
40756;DHT22;26461;45.630;9.418;2022-11-20T01:44:06;8.00;99.90
40756;DHT22;26461;45.630;9.418;2022-11-20T01:47:16;7.90;99.90
40756;DHT22;26461;45.630;9.418;2022-11-20T01:50:31;7.90;99.90
40756;DHT22;26461;45.630;9.418;2022-11-20T01:53:45;7.90;99.90
40756;DHT22;26461;45.630;9.418;2022-11-20T01:56:57;7.90;99.90
40756;DHT22;26461;45.630;9.418;2022-11-20T02:00:12;7.80;99.90
40756;DHT22;26461;45.630;9.418;2022-11-20T02:03:23;7.80;99.90
40756;DHT22;26461;45.630;9.418;2022-11-20T02:10:15;7.90;99.90
40756;DHT22;26461;45.630;9.418;2022-11-20T02:13:26;7.90;99.90
40756;DHT22;26461;45.630;9.418;2022-11-20T02:17:04;7.90;99.90
40756;DHT22;26461;45.630;9.418;2022-11-20T02:20:18;8.00;99.90
40756;DHT22;26461;45.630;9.418;2022-11-20T02:23:50;8.00;99.90
40756;DHT22;26461;45.630;9.418;2022-11-20T02:27:12;8.00;99.90
40756;DHT22;26461;45.630;9.418;2022-11-20T02:30:27;8.00;99.90
40756;DHT22;26461;45.630;9.418;2022-11-20T02:33:38;8.00;99.90
40756;DHT22;26461;45.630;9.418;2022-11-20T02:36:52;7.90;99.90
40756;DHT22;26461;45.630;9.418;2022-11-20T02:40:07;7.90;99.90
40756;DHT22;26461;45.630;9.418;2022-11-20T02:43:22;7.90;99.90
40756;DHT22;26461;45.630;9.418;2022-11-20T02:46:34;7.90;99.90
40756;DHT22;26461;45.630;9.418;2022-11-20T02:49:51;7.80;99.90
40756;DHT22;26461;45.630;9.418;2022-11-20T02:53:04;7.80;99.90
40756;DHT22;26461;45.630;9.418;2022-11-20T02:56:17;7.80;99.90
40756;DHT22;26461;45.630;9.418;2022-11-20T02:59:23;7.80;99.90
40756;DHT22;26461;45.630;9.418;2022-11-20T03:02:43;7.80;99.90
40756;DHT22;26461;45.630;9.418;2022-11-20T03:06:00;7.90;99.90
40756;DHT22;26461;45.630;9.418;2022-11-20T03:09:07;7.90;99.90
40756;DHT22;26461;45.630;9.418;2022-11-20T03:12:21;7.90;99.90
40756;DHT22;26461;45.630;9.418;2022-11-20T03:15:41;8.00;99.90
40756;DHT22;26461;45.630;9.418;2022-11-20T03:18:47;8.00;99.90
40756;DHT22;26461;45.630;9.418;2022-11-20T03:22:01;8.00;99.90
40756;DHT22;26461;45.630;9.418;2022-11-20T03:25:16;8.00;99.90
40756;DHT22;26461;45.630;9.418;2022-11-20T03:28:27;8.00;99.90
40756;DHT22;26461;45.630;9.418;2022-11-20T03:31:43;8.10;99.90
40756;DHT22;26461;45.630;9.418;2022-11-20T03:34:49;8.10;99.90
40756;DHT22;26461;45.630;9.418;2022-11-20T03:37:57;8.10;99.90
40756;DHT22;26461;45.630;9.418;2022-11-20T03:41:19;8.10;99.90
40756;DHT22;26461;45.630;9.418;2022-11-20T03:44:34;8.10;99.90
40756;DHT22;26461;45.630;9.418;2022-11-20T03:47:40;8.10;99.90
40756;DHT22;26461;45.630;9.418;2022-11-20T03:51:34;8.10;99.90
40756;DHT22;26461;45.630;9.418;2022-11-20T03:54:46;8.10;99.90
40756;DHT22;26461;45.630;9.418;2022-11-20T03:57:58;8.10;99.90
40756;DHT22;26461;45.630;9.418;2022-11-20T04:01:17;8.10;99.90
40756;DHT22;26461;45.630;9.418;2022-11-20T04:04:23;8.10;99.90
40756;DHT22;26461;45.630;9.418;2022-11-20T04:07:29;8.10;99.90
40756;DHT22;26461;45.630;9.418;2022-11-20T04:10:41;8.10;99.90
40756;DHT22;26461;45.630;9.418;2022-11-20T04:13:52;8.00;99.90
40756;DHT22;26461;45.630;9.418;2022-11-20T04:16:59;8.00;99.90
40756;DHT22;26461;45.630;9.418;2022-11-20T04:20:13;8.00;99.90
40756;DHT22;26461;45.630;9.418;2022-11-20T04:23:22;8.00;99.90
40756;DHT22;26461;45.630;9.418;2022-11-20T04:26:34;8.00;99.90
40756;DHT22;26461;45.630;9.418;2022-11-20T04:29:54;8.00;99.90
40756;DHT22;26461;45.630;9.418;2022-11-20T04:33:06;8.10;99.90
40756;DHT22;26461;45.630;9.418;2022-11-20T04:36:13;8.10;99.90
40756;DHT22;26461;45.630;9.418;2022-11-20T04:39:25;8.10;99.90
40756;DHT22;26461;45.630;9.418;2022-11-20T04:42:42;8.00;99.90
40756;DHT22;26461;45.630;9.418;2022-11-20T04:46:03;8.00;99.90
40756;DHT22;26461;45.630;9.418;2022-11-20T04:49:19;8.00;99.90
40756;DHT22;26461;45.630;9.418;2022-11-20T04:52:24;8.00;99.90
40756;DHT22;26461;45.630;9.418;2022-11-20T04:55:31;8.00;99.90
40756;DHT22;26461;45.630;9.418;2022-11-20T04:58:41;8.00;99.90
40756;DHT22;26461;45.630;9.418;2022-11-20T05:01:55;8.00;99.90
40756;DHT22;26461;45.630;9.418;2022-11-20T05:05:05;8.00;99.90
40756;DHT22;26461;45.630;9.418;2022-11-20T05:08:11;8.00;99.90
40756;DHT22;26461;45.630;9.418;2022-11-20T05:11:23;7.90;99.90
40756;DHT22;26461;45.630;9.418;2022-11-20T05:14:37;7.90;99.90
40756;DHT22;26461;45.630;9.418;2022-11-20T05:17:54;7.80;99.90
40756;DHT22;26461;45.630;9.418;2022-11-20T05:21:12;7.70;99.90
40756;DHT22;26461;45.630;9.418;2022-11-20T05:24:29;7.70;99.90
40756;DHT22;26461;45.630;9.418;2022-11-20T05:27:40;7.60;99.90
40756;DHT22;26461;45.630;9.418;2022-11-20T05:30:50;7.60;99.90
40756;DHT22;26461;45.630;9.418;2022-11-20T05:34:04;7.50;99.90
40756;DHT22;26461;45.630;9.418;2022-11-20T05:37:10;7.50;99.90
40756;DHT22;26461;45.630;9.418;2022-11-20T05:40:18;7.50;99.90
40756;DHT22;26461;45.630;9.418;2022-11-20T05:43:34;7.50;99.90
40756;DHT22;26461;45.630;9.418;2022-11-20T05:46:41;7.50;99.90
40756;DHT22;26461;45.630;9.418;2022-11-20T05:49:55;7.50;99.90
40756;DHT22;26461;45.630;9.418;2022-11-20T05:53:05;7.50;99.90
40756;DHT22;26461;45.630;9.418;2022-11-20T05:56:25;7.40;99.90
40756;DHT22;26461;45.630;9.418;2022-11-20T05:59:46;7.40;99.90
40756;DHT22;26461;45.630;9.418;2022-11-20T06:03:09;7.40;99.90
40756;DHT22;26461;45.630;9.418;2022-11-20T06:06:28;7.50;99.90
40756;DHT22;26461;45.630;9.418;2022-11-20T06:09:37;7.50;99.90
40756;DHT22;26461;45.630;9.418;2022-11-20T06:12:57;7.50;99.90
40756;DHT22;26461;45.630;9.418;2022-11-20T06:16:22;7.50;99.90
40756;DHT22;26461;45.630;9.418;2022-11-20T06:19:46;7.50;99.90
40756;DHT22;26461;45.630;9.418;2022-11-20T06:23:01;7.50;99.90
40756;DHT22;26461;45.630;9.418;2022-11-20T06:26:25;7.60;99.90
40756;DHT22;26461;45.630;9.418;2022-11-20T06:29:44;7.50;99.90
40756;DHT22;26461;45.630;9.418;2022-11-20T06:33:03;7.50;99.90
40756;DHT22;26461;45.630;9.418;2022-11-20T06:36:14;7.50;99.90
40756;DHT22;26461;45.630;9.418;2022-11-20T06:39:29;7.50;99.90
40756;DHT22;26461;45.630;9.418;2022-11-20T06:42:41;7.50;99.90
40756;DHT22;26461;45.630;9.418;2022-11-20T06:45:55;7.50;99.90
40756;DHT22;26461;45.630;9.418;2022-11-20T06:49:26;7.60;99.90
40756;DHT22;26461;45.630;9.418;2022-11-20T06:52:43;7.60;99.90
40756;DHT22;26461;45.630;9.418;2022-11-20T06:56:07;7.60;99.90
40756;DHT22;26461;45.630;9.418;2022-11-20T06:59:28;7.60;99.90
40756;DHT22;26461;45.630;9.418;2022-11-20T07:02:51;7.60;99.80
40756;DHT22;26461;45.630;9.418;2022-11-20T07:06:14;7.70;99.70
40756;DHT22;26461;45.630;9.418;2022-11-20T07:09:35;7.70;99.50
40756;DHT22;26461;45.630;9.418;2022-11-20T07:13:01;7.80;99.30
40756;DHT22;26461;45.630;9.418;2022-11-20T07:16:17;7.90;99.20
40756;DHT22;26461;45.630;9.418;2022-11-20T07:19:35;8.00;99.00
40756;DHT22;26461;45.630;9.418;2022-11-20T07:22:42;8.10;98.70
40756;DHT22;26461;45.630;9.418;2022-11-20T07:25:56;8.20;98.20
40756;DHT22;26461;45.630;9.418;2022-11-20T07:29:07;8.30;98.90
40756;DHT22;26461;45.630;9.418;2022-11-20T07:32:15;8.50;99.00
40756;DHT22;26461;45.630;9.418;2022-11-20T07:35:40;8.60;99.00
40756;DHT22;26461;45.630;9.418;2022-11-20T07:38:50;8.70;99.00
40756;DHT22;26461;45.630;9.418;2022-11-20T07:42:05;8.70;99.20
40756;DHT22;26461;45.630;9.418;2022-11-20T07:45:21;8.80;99.10
40756;DHT22;26461;45.630;9.418;2022-11-20T07:48:32;8.80;98.90
40756;DHT22;26461;45.630;9.418;2022-11-20T07:51:43;8.90;98.90
40756;DHT22;26461;45.630;9.418;2022-11-20T07:54:54;8.90;99.30
40756;DHT22;26461;45.630;9.418;2022-11-20T07:58:06;8.90;99.30
40756;DHT22;26461;45.630;9.418;2022-11-20T08:01:15;9.00;99.50
40756;DHT22;26461;45.630;9.418;2022-11-20T08:04:21;9.00;99.90
40756;DHT22;26461;45.630;9.418;2022-11-20T08:07:44;9.00;99.90
40756;DHT22;26461;45.630;9.418;2022-11-20T08:10:58;9.10;99.90
40756;DHT22;26461;45.630;9.418;2022-11-20T08:14:30;9.20;99.90
40756;DHT22;26461;45.630;9.418;2022-11-20T08:17:47;9.20;99.90
40756;DHT22;26461;45.630;9.418;2022-11-20T08:21:04;9.20;99.90
40756;DHT22;26461;45.630;9.418;2022-11-20T08:24:15;9.30;99.90
40756;DHT22;26461;45.630;9.418;2022-11-20T08:27:26;9.30;99.90
40756;DHT22;26461;45.630;9.418;2022-11-20T08:30:33;9.40;99.90
40756;DHT22;26461;45.630;9.418;2022-11-20T08:33:47;9.40;99.90
40756;DHT22;26461;45.630;9.418;2022-11-20T08:37:05;9.40;99.50
40756;DHT22;26461;45.630;9.418;2022-11-20T08:40:16;9.40;99.20
40756;DHT22;26461;45.630;9.418;2022-11-20T08:43:22;9.40;99.20
40756;DHT22;26461;45.630;9.418;2022-11-20T08:46:43;9.50;99.10
40756;DHT22;26461;45.630;9.418;2022-11-20T08:49:54;9.50;98.80
40756;DHT22;26461;45.630;9.418;2022-11-20T08:53:09;9.60;98.90
40756;DHT22;26461;45.630;9.418;2022-11-20T08:56:27;9.60;98.60
40756;DHT22;26461;45.630;9.418;2022-11-20T08:59:47;9.70;99.00
40756;DHT22;26461;45.630;9.418;2022-11-20T09:02:59;9.80;99.20
40756;DHT22;26461;45.630;9.418;2022-11-20T09:06:14;9.80;98.70
40756;DHT22;26461;45.630;9.418;2022-11-20T09:09:27;9.90;98.30
40756;DHT22;26461;45.630;9.418;2022-11-20T09:12:36;10.00;97.90
40756;DHT22;26461;45.630;9.418;2022-11-20T09:16:07;10.00;97.00
40756;DHT22;26461;45.630;9.418;2022-11-20T09:19:38;10.00;97.40
40756;DHT22;26461;45.630;9.418;2022-11-20T09:22:53;10.10;97.40
40756;DHT22;26461;45.630;9.418;2022-11-20T09:26:12;10.20;97.30
40756;DHT22;26461;45.630;9.418;2022-11-20T09:29:28;10.20;97.30
40756;DHT22;26461;45.630;9.418;2022-11-20T09:32:41;10.30;97.20
40756;DHT22;26461;45.630;9.418;2022-11-20T09:35:54;10.30;97.10
40756;DHT22;26461;45.630;9.418;2022-11-20T09:39:01;10.40;97.10
40756;DHT22;26461;45.630;9.418;2022-11-20T09:53:22;10.50;96.30
40756;DHT22;26461;45.630;9.418;2022-11-20T09:57:30;10.60;96.30
40756;DHT22;26461;45.630;9.418;2022-11-20T10:00:15;10.60;96.10
40756;DHT22;26461;45.630;9.418;2022-11-20T10:07:22;10.70;96.00
40756;DHT22;26461;45.630;9.418;2022-11-20T10:10:50;10.80;95.60
40756;DHT22;26461;45.630;9.418;2022-11-20T10:17:55;10.90;96.00
40756;DHT22;26461;45.630;9.418;2022-11-20T10:24:56;11.00;95.60
40756;DHT22;26461;45.630;9.418;2022-11-20T10:31:54;11.10;95.40
40756;DHT22;26461;45.630;9.418;2022-11-20T10:35:22;11.10;95.30
40756;DHT22;26461;45.630;9.418;2022-11-20T10:38:42;11.10;94.90
40756;DHT22;26461;45.630;9.418;2022-11-20T10:41:53;11.10;95.20
40756;DHT22;26461;45.630;9.418;2022-11-20T10:45:27;11.20;95.50
40756;DHT22;26461;45.630;9.418;2022-11-20T10:48:53;11.20;95.40
40756;DHT22;26461;45.630;9.418;2022-11-20T10:55:55;11.30;95.20
40756;DHT22;26461;45.630;9.418;2022-11-20T10:59:38;11.30;95.30
40756;DHT22;26461;45.630;9.418;2022-11-20T11:02:55;11.40;95.20
40756;DHT22;26461;45.630;9.418;2022-11-20T11:06:40;11.50;95.30
40756;DHT22;26461;45.630;9.418;2022-11-20T11:09:55;11.50;95.90
40756;DHT22;26461;45.630;9.418;2022-11-20T11:13:07;11.60;96.20
40756;DHT22;26461;45.630;9.418;2022-11-20T11:16:57;11.70;96.30
40756;DHT22;26461;45.630;9.418;2022-11-20T11:20:19;11.70;96.20
40756;DHT22;26461;45.630;9.418;2022-11-20T11:23:37;11.80;96.70
40756;DHT22;26461;45.630;9.418;2022-11-20T11:27:02;11.90;96.90
40756;DHT22;26461;45.630;9.418;2022-11-20T11:30:20;12.00;96.70
40756;DHT22;26461;45.630;9.418;2022-11-20T11:33:42;12.10;96.50
40756;DHT22;26461;45.630;9.418;2022-11-20T11:36:56;12.10;95.30
40756;DHT22;26461;45.630;9.418;2022-11-20T11:40:14;12.20;95.90
40756;DHT22;26461;45.630;9.418;2022-11-20T11:43:29;12.30;96.20
40756;DHT22;26461;45.630;9.418;2022-11-20T11:47:01;12.30;96.30
40756;DHT22;26461;45.630;9.418;2022-11-20T11:50:16;12.40;96.20
40756;DHT22;26461;45.630;9.418;2022-11-20T11:53:36;12.50;95.90
40756;DHT22;26461;45.630;9.418;2022-11-20T11:57:00;12.50;94.90
40756;DHT22;26461;45.630;9.418;2022-11-20T12:00:20;12.60;94.90
40756;DHT22;26461;45.630;9.418;2022-11-20T12:03:38;12.60;94.80
40756;DHT22;26461;45.630;9.418;2022-11-20T12:07:00;12.70;94.30
40756;DHT22;26461;45.630;9.418;2022-11-20T12:10:23;12.70;94.20
40756;DHT22;26461;45.630;9.418;2022-11-20T12:16:54;12.90;93.90
40756;DHT22;26461;45.630;9.418;2022-11-20T12:20:45;12.90;93.60
40756;DHT22;26461;45.630;9.418;2022-11-20T12:31:15;13.20;92.80
40756;DHT22;26461;45.630;9.418;2022-11-20T12:34:47;13.30;92.40
40756;DHT22;26461;45.630;9.418;2022-11-20T12:38:35;13.40;91.30
40756;DHT22;26461;45.630;9.418;2022-11-20T12:52:38;13.60;91.10
40756;DHT22;26461;45.630;9.418;2022-11-20T13:03:40;14.00;91.40
40756;DHT22;26461;45.630;9.418;2022-11-20T13:06:52;14.20;90.90
40756;DHT22;26461;45.630;9.418;2022-11-20T13:10:06;14.30;91.00
40756;DHT22;26461;45.630;9.418;2022-11-20T13:20:48;14.50;89.40
40756;DHT22;26461;45.630;9.418;2022-11-20T13:24:20;14.60;89.30
40756;DHT22;26461;45.630;9.418;2022-11-20T13:27:51;14.60;89.00
40756;DHT22;26461;45.630;9.418;2022-11-20T13:30:59;14.70;88.60
40756;DHT22;26461;45.630;9.418;2022-11-20T13:34:25;14.80;88.50
40756;DHT22;26461;45.630;9.418;2022-11-20T13:37:38;14.80;86.90
40756;DHT22;26461;45.630;9.418;2022-11-20T13:40:56;14.90;86.60
40756;DHT22;26461;45.630;9.418;2022-11-20T13:44:15;14.90;86.30
40756;DHT22;26461;45.630;9.418;2022-11-20T13:47:33;15.00;85.60
40756;DHT22;26461;45.630;9.418;2022-11-20T13:55:18;15.20;85.90
40756;DHT22;26461;45.630;9.418;2022-11-20T14:02:31;15.30;84.70
40756;DHT22;26461;45.630;9.418;2022-11-20T14:05:56;15.30;84.00
40756;DHT22;26461;45.630;9.418;2022-11-20T14:09:30;15.40;84.80
40756;DHT22;26461;45.630;9.418;2022-11-20T14:12:37;15.40;84.20
40756;DHT22;26461;45.630;9.418;2022-11-20T14:15:57;15.40;84.00
40756;DHT22;26461;45.630;9.418;2022-11-20T14:22:30;15.50;83.90
40756;DHT22;26461;45.630;9.418;2022-11-20T14:25:36;15.40;85.10
40756;DHT22;26461;45.630;9.418;2022-11-20T14:28:49;15.40;84.70
40756;DHT22;26461;45.630;9.418;2022-11-20T14:32:02;15.40;85.50
40756;DHT22;26461;45.630;9.418;2022-11-20T14:38:59;15.50;85.40
40756;DHT22;26461;45.630;9.418;2022-11-20T14:42:20;15.60;83.90
40756;DHT22;26461;45.630;9.418;2022-11-20T14:45:32;15.60;84.40
40756;DHT22;26461;45.630;9.418;2022-11-20T14:48:52;15.60;85.40
40756;DHT22;26461;45.630;9.418;2022-11-20T14:52:21;15.70;86.10
40756;DHT22;26461;45.630;9.418;2022-11-20T14:55:38;15.80;84.80
40756;DHT22;26461;45.630;9.418;2022-11-20T14:59:01;15.70;84.50
40756;DHT22;26461;45.630;9.418;2022-11-20T15:02:13;15.70;84.70
40756;DHT22;26461;45.630;9.418;2022-11-20T15:05:46;15.60;83.80
40756;DHT22;26461;45.630;9.418;2022-11-20T15:08:58;15.50;83.50
40756;DHT22;26461;45.630;9.418;2022-11-20T15:12:05;15.30;84.00
40756;DHT22;26461;45.630;9.418;2022-11-20T15:15:45;15.20;84.50
40756;DHT22;26461;45.630;9.418;2022-11-20T15:19:17;15.10;85.00
40756;DHT22;26461;45.630;9.418;2022-11-20T15:22:37;15.00;85.40
40756;DHT22;26461;45.630;9.418;2022-11-20T15:25:55;14.90;85.60
40756;DHT22;26461;45.630;9.418;2022-11-20T15:29:18;14.90;86.10
40756;DHT22;26461;45.630;9.418;2022-11-20T15:32:37;14.80;86.30
40756;DHT22;26461;45.630;9.418;2022-11-20T15:35:46;14.80;86.40
40756;DHT22;26461;45.630;9.418;2022-11-20T15:38:53;14.80;86.50
40756;DHT22;26461;45.630;9.418;2022-11-20T15:42:03;14.80;86.90
40756;DHT22;26461;45.630;9.418;2022-11-20T15:45:18;14.70;86.90
40756;DHT22;26461;45.630;9.418;2022-11-20T15:48:51;14.60;86.40
40756;DHT22;26461;45.630;9.418;2022-11-20T15:52:12;14.40;86.20
40756;DHT22;26461;45.630;9.418;2022-11-20T15:55:19;14.20;86.70
40756;DHT22;26461;45.630;9.418;2022-11-20T15:58:35;13.90;86.80
40756;DHT22;26461;45.630;9.418;2022-11-20T16:01:48;13.70;87.10
40756;DHT22;26461;45.630;9.418;2022-11-20T16:05:11;13.50;87.50
40756;DHT22;26461;45.630;9.418;2022-11-20T16:08:25;13.30;89.10
40756;DHT22;26461;45.630;9.418;2022-11-20T16:11:59;12.90;89.20
40756;DHT22;26461;45.630;9.418;2022-11-20T16:15:11;12.60;90.20
40756;DHT22;26461;45.630;9.418;2022-11-20T16:18:42;12.40;90.50
40756;DHT22;26461;45.630;9.418;2022-11-20T16:22:02;12.30;91.00
40756;DHT22;26461;45.630;9.418;2022-11-20T16:25:16;12.20;91.20
40756;DHT22;26461;45.630;9.418;2022-11-20T16:28:24;12.20;91.00
40756;DHT22;26461;45.630;9.418;2022-11-20T16:31:39;12.10;90.90
40756;DHT22;26461;45.630;9.418;2022-11-20T16:34:57;12.00;91.20
40756;DHT22;26461;45.630;9.418;2022-11-20T16:38:10;11.90;91.40
40756;DHT22;26461;45.630;9.418;2022-11-20T16:41:24;11.80;91.60
40756;DHT22;26461;45.630;9.418;2022-11-20T16:44:40;11.80;91.70
40756;DHT22;26461;45.630;9.418;2022-11-20T16:47:53;11.70;92.00
40756;DHT22;26461;45.630;9.418;2022-11-20T16:51:11;11.70;92.30
40756;DHT22;26461;45.630;9.418;2022-11-20T16:54:18;11.70;91.90
40756;DHT22;26461;45.630;9.418;2022-11-20T16:57:30;11.70;91.90
40756;DHT22;26461;45.630;9.418;2022-11-20T17:00:41;11.60;91.90
40756;DHT22;26461;45.630;9.418;2022-11-20T17:07:08;11.50;91.90
40756;DHT22;26461;45.630;9.418;2022-11-20T17:10:18;11.50;92.20
40756;DHT22;26461;45.630;9.418;2022-11-20T17:13:36;11.40;92.40
40756;DHT22;26461;45.630;9.418;2022-11-20T17:16:47;11.30;92.60
40756;DHT22;26461;45.630;9.418;2022-11-20T17:19:53;11.30;92.80
40756;DHT22;26461;45.630;9.418;2022-11-20T17:23:03;11.20;92.70
40756;DHT22;26461;45.630;9.418;2022-11-20T17:26:16;11.20;92.80
40756;DHT22;26461;45.630;9.418;2022-11-20T17:29:27;11.30;93.40
40756;DHT22;26461;45.630;9.418;2022-11-20T17:32:36;11.30;93.10
40756;DHT22;26461;45.630;9.418;2022-11-20T17:35:41;11.30;93.40
40756;DHT22;26461;45.630;9.418;2022-11-20T17:38:47;11.30;93.80
40756;DHT22;26461;45.630;9.418;2022-11-20T17:41:55;11.30;93.90
40756;DHT22;26461;45.630;9.418;2022-11-20T17:45:19;11.30;94.00
40756;DHT22;26461;45.630;9.418;2022-11-20T17:48:25;11.30;94.20
40756;DHT22;26461;45.630;9.418;2022-11-20T17:51:32;11.20;94.30
40756;DHT22;26461;45.630;9.418;2022-11-20T17:54:40;11.10;94.40
40756;DHT22;26461;45.630;9.418;2022-11-20T17:57:50;11.10;94.70
40756;DHT22;26461;45.630;9.418;2022-11-20T18:01:05;11.10;94.80
40756;DHT22;26461;45.630;9.418;2022-11-20T18:04:19;11.00;94.90
40756;DHT22;26461;45.630;9.418;2022-11-20T18:07:36;11.00;95.40
40756;DHT22;26461;45.630;9.418;2022-11-20T18:10:50;10.90;95.70
40756;DHT22;26461;45.630;9.418;2022-11-20T18:14:04;10.80;95.80
40756;DHT22;26461;45.630;9.418;2022-11-20T18:17:29;10.70;95.70
40756;DHT22;26461;45.630;9.418;2022-11-20T18:20:35;10.60;96.10
40756;DHT22;26461;45.630;9.418;2022-11-20T18:23:41;10.60;95.90
40756;DHT22;26461;45.630;9.418;2022-11-20T18:26:52;10.50;95.80
40756;DHT22;26461;45.630;9.418;2022-11-20T18:30:06;10.50;96.10
40756;DHT22;26461;45.630;9.418;2022-11-20T18:33:11;10.50;96.30
40756;DHT22;26461;45.630;9.418;2022-11-20T18:36:42;10.50;96.70
40756;DHT22;26461;45.630;9.418;2022-11-20T18:39:54;10.40;97.00
40756;DHT22;26461;45.630;9.418;2022-11-20T18:43:10;10.40;97.20
40756;DHT22;26461;45.630;9.418;2022-11-20T18:46:34;10.30;97.40
40756;DHT22;26461;45.630;9.418;2022-11-20T18:49:52;10.30;97.60
40756;DHT22;26461;45.630;9.418;2022-11-20T18:53:08;10.20;97.90
40756;DHT22;26461;45.630;9.418;2022-11-20T18:56:38;10.10;98.20
40756;DHT22;26461;45.630;9.418;2022-11-20T18:59:48;10.10;98.60
40756;DHT22;26461;45.630;9.418;2022-11-20T19:02:54;10.00;98.50
40756;DHT22;26461;45.630;9.418;2022-11-20T19:06:17;9.90;98.40
40756;DHT22;26461;45.630;9.418;2022-11-20T19:09:26;9.90;98.60
40756;DHT22;26461;45.630;9.418;2022-11-20T19:12:33;9.90;98.80
40756;DHT22;26461;45.630;9.418;2022-11-20T19:15:42;9.90;99.00
40756;DHT22;26461;45.630;9.418;2022-11-20T19:18:48;9.90;99.20
40756;DHT22;26461;45.630;9.418;2022-11-20T19:22:02;9.80;99.30
40756;DHT22;26461;45.630;9.418;2022-11-20T19:25:14;9.70;99.30
40756;DHT22;26461;45.630;9.418;2022-11-20T19:28:22;9.70;99.50
40756;DHT22;26461;45.630;9.418;2022-11-20T19:31:42;9.60;99.60
40756;DHT22;26461;45.630;9.418;2022-11-20T19:34:51;9.60;99.70
40756;DHT22;26461;45.630;9.418;2022-11-20T19:37:57;9.50;99.70
40756;DHT22;26461;45.630;9.418;2022-11-20T19:41:07;9.40;99.70
40756;DHT22;26461;45.630;9.418;2022-11-20T19:44:18;9.30;99.70
40756;DHT22;26461;45.630;9.418;2022-11-20T19:47:30;9.30;99.80
40756;DHT22;26461;45.630;9.418;2022-11-20T19:50:47;9.30;99.90
40756;DHT22;26461;45.630;9.418;2022-11-20T19:54:00;9.20;99.90
40756;DHT22;26461;45.630;9.418;2022-11-20T19:57:13;9.20;99.90
40756;DHT22;26461;45.630;9.418;2022-11-20T20:00:25;9.20;99.90
40756;DHT22;26461;45.630;9.418;2022-11-20T20:03:56;9.20;99.90
40756;DHT22;26461;45.630;9.418;2022-11-20T20:07:18;9.20;99.80
40756;DHT22;26461;45.630;9.418;2022-11-20T20:10:31;9.20;99.80
40756;DHT22;26461;45.630;9.418;2022-11-20T20:13:45;9.20;99.70
40756;DHT22;26461;45.630;9.418;2022-11-20T20:16:53;9.20;99.90
40756;DHT22;26461;45.630;9.418;2022-11-20T20:20:11;9.10;99.90
40756;DHT22;26461;45.630;9.418;2022-11-20T20:23:18;9.10;99.90
40756;DHT22;26461;45.630;9.418;2022-11-20T20:26:28;9.10;99.90
40756;DHT22;26461;45.630;9.418;2022-11-20T20:29:40;9.10;99.90
40756;DHT22;26461;45.630;9.418;2022-11-20T20:33:01;9.10;99.90
40756;DHT22;26461;45.630;9.418;2022-11-20T20:36:17;9.00;99.90
40756;DHT22;26461;45.630;9.418;2022-11-20T20:39:34;9.00;99.90
40756;DHT22;26461;45.630;9.418;2022-11-20T20:42:50;8.90;99.90
40756;DHT22;26461;45.630;9.418;2022-11-20T20:46:06;8.90;99.90
40756;DHT22;26461;45.630;9.418;2022-11-20T20:49:39;8.80;99.90
40756;DHT22;26461;45.630;9.418;2022-11-20T20:53:32;8.80;99.90
40756;DHT22;26461;45.630;9.418;2022-11-20T20:56:55;8.70;99.90
40756;DHT22;26461;45.630;9.418;2022-11-20T21:00:09;8.70;99.90
40756;DHT22;26461;45.630;9.418;2022-11-20T21:03:32;8.70;99.90
40756;DHT22;26461;45.630;9.418;2022-11-20T21:06:45;8.70;99.90
40756;DHT22;26461;45.630;9.418;2022-11-20T21:10:04;8.70;99.90
40756;DHT22;26461;45.630;9.418;2022-11-20T21:13:17;8.80;99.90
40756;DHT22;26461;45.630;9.418;2022-11-20T21:16:26;8.80;99.90
40756;DHT22;26461;45.630;9.418;2022-11-20T21:19:51;8.80;99.90
40756;DHT22;26461;45.630;9.418;2022-11-20T21:23:13;8.80;99.90
40756;DHT22;26461;45.630;9.418;2022-11-20T21:26:26;8.80;99.90
40756;DHT22;26461;45.630;9.418;2022-11-20T21:29:44;8.70;99.90
40756;DHT22;26461;45.630;9.418;2022-11-20T21:33:07;8.70;99.90
40756;DHT22;26461;45.630;9.418;2022-11-20T21:36:33;8.70;99.90
40756;DHT22;26461;45.630;9.418;2022-11-20T21:39:40;8.70;99.90
40756;DHT22;26461;45.630;9.418;2022-11-20T21:43:05;8.70;99.90
40756;DHT22;26461;45.630;9.418;2022-11-20T21:46:26;8.70;99.90
40756;DHT22;26461;45.630;9.418;2022-11-20T21:49:42;8.70;99.90
40756;DHT22;26461;45.630;9.418;2022-11-20T21:52:51;8.80;99.90
40756;DHT22;26461;45.630;9.418;2022-11-20T21:56:02;8.80;99.90
40756;DHT22;26461;45.630;9.418;2022-11-20T21:59:27;8.90;99.90
40756;DHT22;26461;45.630;9.418;2022-11-20T22:02:42;8.90;99.90
40756;DHT22;26461;45.630;9.418;2022-11-20T22:05:55;9.00;99.90
40756;DHT22;26461;45.630;9.418;2022-11-20T22:09:02;9.00;99.90
40756;DHT22;26461;45.630;9.418;2022-11-20T22:12:17;9.00;99.90
40756;DHT22;26461;45.630;9.418;2022-11-20T22:15:25;9.00;99.90
40756;DHT22;26461;45.630;9.418;2022-11-20T22:18:50;9.00;99.90